createdAt,value
2019-03-25T00:00:38.602Z,13.40
2019-03-25T00:01:44.037Z,13.40
2019-03-25T00:02:48.519Z,13.50
2019-03-25T00:03:53.013Z,13.50
2019-03-25T00:04:57.490Z,13.50
2019-03-25T00:06:01.998Z,13.50
2019-03-25T00:07:06.481Z,13.50
2019-03-25T00:08:11.585Z,13.50
2019-03-25T00:09:16.196Z,13.50
2019-03-25T00:10:20.676Z,13.50
2019-03-25T00:11:25.230Z,13.50
2019-03-25T00:12:29.709Z,13.50
2019-03-25T00:13:34.190Z,13.50
2019-03-25T00:14:38.672Z,13.50
2019-03-25T00:15:43.156Z,13.50
2019-03-25T00:16:47.802Z,13.50
2019-03-25T00:17:52.365Z,13.50
2019-03-25T00:18:56.853Z,13.50
2019-03-25T00:20:01.320Z,13.50
2019-03-25T00:21:05.870Z,13.40
2019-03-25T00:22:10.372Z,13.50
2019-03-25T00:23:14.874Z,13.40
2019-03-25T00:24:19.426Z,13.50
2019-03-25T00:25:23.907Z,13.50
2019-03-25T00:26:28.393Z,13.50
2019-03-25T00:27:32.901Z,13.50
2019-03-25T00:28:37.450Z,13.50
2019-03-25T00:29:41.937Z,13.50
2019-03-25T00:30:46.424Z,13.50
2019-03-25T00:31:50.894Z,13.50
2019-03-25T00:32:55.394Z,13.50
2019-03-25T00:33:59.954Z,13.50
2019-03-25T00:35:05.989Z,13.50
2019-03-25T00:36:10.556Z,13.50
2019-03-25T00:37:15.020Z,13.50
2019-03-25T00:38:19.528Z,13.50
2019-03-25T00:39:24.002Z,13.50
2019-03-25T00:40:28.487Z,13.40
2019-03-25T00:41:32.979Z,13.50
2019-03-25T00:42:37.511Z,13.50
2019-03-25T00:43:42.007Z,13.50
2019-03-25T00:44:46.502Z,13.50
2019-03-25T00:45:50.999Z,13.50
2019-03-25T00:46:55.480Z,13.50
2019-03-25T00:47:59.952Z,13.50
2019-03-25T00:49:04.529Z,13.50
2019-03-25T00:50:09.457Z,13.50
2019-03-25T00:51:13.942Z,13.50
2019-03-25T00:52:18.432Z,13.50
2019-03-25T00:53:22.924Z,13.50
2019-03-25T00:54:27.406Z,13.50
2019-03-25T00:55:31.911Z,13.50
2019-03-25T00:56:36.387Z,13.50
2019-03-25T00:57:40.874Z,13.50
2019-03-25T00:58:45.354Z,13.50
2019-03-25T00:59:49.869Z,13.60
2019-03-25T01:00:54.343Z,13.60
2019-03-25T01:01:58.909Z,13.60
2019-03-25T01:03:03.395Z,13.60
2019-03-25T01:04:07.944Z,13.60
2019-03-25T01:05:12.576Z,13.60
2019-03-25T01:06:17.128Z,13.60
2019-03-25T01:07:21.621Z,13.60
2019-03-25T01:08:26.086Z,13.60
2019-03-25T01:09:30.570Z,13.60
2019-03-25T01:10:35.153Z,13.60
2019-03-25T01:11:48.580Z,13.60
2019-03-25T01:12:45.821Z,13.60
2019-03-25T01:13:50.295Z,13.60
2019-03-25T01:14:54.762Z,13.70
2019-03-25T01:15:59.314Z,13.70
2019-03-25T01:17:03.878Z,13.70
2019-03-25T01:18:16.937Z,13.70
2019-03-25T01:19:14.536Z,13.70
2019-03-25T01:20:19.026Z,13.70
2019-03-25T01:21:23.588Z,13.70
2019-03-25T01:22:28.079Z,13.70
2019-03-25T01:23:32.559Z,13.70
2019-03-25T01:24:37.030Z,13.70
2019-03-25T01:25:41.505Z,13.70
2019-03-25T01:52:16.748Z,13.30
2019-03-25T01:53:21.365Z,13.30
2019-03-25T01:54:26.074Z,13.30
2019-03-25T01:55:30.799Z,13.20
2019-03-25T01:56:35.418Z,13.20
2019-03-25T01:57:40.107Z,13.20
2019-03-25T01:58:44.791Z,13.20
2019-03-25T01:59:49.499Z,13.20
2019-03-25T02:00:54.176Z,13.20
2019-03-25T02:01:58.851Z,13.20
2019-03-25T02:03:03.578Z,13.20
2019-03-25T02:04:08.246Z,13.20
2019-03-25T02:05:12.898Z,13.20
2019-03-25T02:06:17.625Z,13.20
2019-03-25T02:07:22.406Z,13.20
2019-03-25T02:08:27.089Z,13.20
2019-03-25T02:09:31.776Z,13.20
2019-03-25T02:10:36.441Z,13.20
2019-03-25T02:11:41.127Z,13.20
2019-03-25T02:12:45.880Z,13.20
2019-03-25T02:13:50.862Z,13.20
2019-03-25T02:14:55.684Z,13.20
2019-03-25T02:16:00.687Z,13.20
2019-03-25T02:17:05.629Z,13.20
2019-03-25T02:18:10.619Z,13.20
2019-03-25T02:19:15.579Z,13.20
2019-03-25T02:20:26.222Z,13.20
2019-03-25T02:21:26.537Z,13.20
2019-03-25T02:22:31.323Z,13.20
2019-03-25T02:23:36.042Z,13.20
2019-03-25T02:24:40.715Z,13.20
2019-03-25T02:25:45.387Z,13.20
2019-03-25T02:26:50.114Z,13.20
2019-03-25T02:27:54.838Z,13.20
2019-03-25T02:28:59.873Z,13.20
2019-03-25T02:30:06.808Z,13.10
2019-03-25T02:31:11.665Z,13.10
2019-03-25T02:32:16.381Z,13.10
2019-03-25T02:33:21.303Z,13.10
2019-03-25T02:34:25.914Z,13.10
2019-03-25T02:35:30.704Z,13.10
2019-03-25T02:36:35.738Z,13.10
2019-03-25T02:37:40.453Z,13.10
2019-03-25T02:38:45.410Z,13.10
2019-03-25T02:39:50.096Z,13.10
2019-03-25T02:40:54.719Z,13.10
2019-03-25T02:41:59.620Z,13.10
2019-03-25T02:43:04.523Z,13.10
2019-03-25T02:44:09.262Z,13.10
2019-03-25T02:45:14.269Z,13.00
2019-03-25T02:46:19.004Z,13.00
2019-03-25T02:47:23.722Z,13.00
2019-03-25T02:48:28.430Z,13.00
2019-03-25T02:49:33.150Z,13.00
2019-03-25T02:50:37.827Z,13.00
2019-03-25T02:51:42.492Z,13.00
2019-03-25T02:52:47.205Z,12.90
2019-03-25T02:53:51.845Z,12.90
2019-03-25T02:54:56.485Z,12.90
2019-03-25T02:56:01.523Z,12.90
2019-03-25T02:57:06.223Z,12.90
2019-03-25T02:58:10.853Z,12.90
2019-03-25T02:59:15.539Z,12.80
2019-03-25T03:00:23.284Z,12.80
2019-03-25T03:01:27.913Z,12.80
2019-03-25T03:03:36.870Z,12.80
2019-03-25T03:04:41.506Z,12.70
2019-03-25T03:05:46.230Z,12.70
2019-03-25T03:06:51.635Z,12.70
2019-03-25T03:07:56.850Z,12.70
2019-03-25T03:09:01.744Z,12.70
2019-03-25T03:10:07.626Z,12.70
2019-03-25T03:11:12.315Z,12.70
2019-03-25T03:12:17.271Z,12.70
2019-03-25T03:13:21.954Z,12.70
2019-03-25T03:14:26.948Z,12.70
2019-03-25T03:15:31.583Z,12.60
2019-03-25T03:16:36.721Z,12.60
2019-03-25T03:17:41.674Z,12.60
2019-03-25T03:18:46.287Z,12.60
2019-03-25T03:19:50.976Z,12.60
2019-03-25T03:20:55.604Z,12.60
2019-03-25T03:22:00.240Z,12.60
2019-03-25T03:23:04.977Z,12.60
2019-03-25T03:24:09.631Z,12.50
2019-03-25T03:25:14.350Z,12.50
2019-03-25T03:26:19.027Z,12.50
2019-03-25T03:27:23.838Z,12.50
2019-03-25T03:28:28.547Z,12.50
2019-03-25T03:29:33.227Z,12.40
2019-03-25T03:30:37.956Z,12.40
2019-03-25T03:31:42.613Z,12.40
2019-03-25T03:32:47.242Z,12.40
2019-03-25T03:33:51.972Z,12.40
2019-03-25T03:34:56.812Z,12.40
2019-03-25T03:36:01.524Z,12.30
2019-03-25T03:37:07.124Z,12.30
2019-03-25T03:38:11.983Z,12.30
2019-03-25T03:39:16.839Z,12.30
2019-03-25T03:40:21.442Z,12.30
2019-03-25T03:41:26.165Z,12.30
2019-03-25T03:42:30.843Z,12.20
2019-03-25T03:43:35.812Z,12.20
2019-03-25T03:44:40.513Z,12.20
2019-03-25T03:45:45.275Z,12.20
2019-03-25T03:46:49.905Z,12.20
2019-03-25T03:47:54.621Z,12.20
2019-03-25T03:48:59.323Z,12.20
2019-03-25T03:50:06.874Z,12.20
2019-03-25T03:51:11.693Z,12.20
2019-03-25T03:52:16.406Z,12.20
2019-03-25T03:53:21.133Z,12.20
2019-03-25T03:54:25.934Z,12.10
2019-03-25T03:55:31.156Z,12.10
2019-03-25T03:56:36.651Z,12.10
2019-03-25T03:57:41.355Z,12.10
2019-03-25T03:58:46.357Z,12.10
2019-03-25T03:59:51.841Z,12.10
2019-03-25T04:00:56.336Z,12.10
2019-03-25T04:02:01.139Z,12.10
2019-03-25T04:03:05.788Z,12.10
2019-03-25T04:04:10.338Z,12.10
2019-03-25T04:05:15.013Z,12.10
2019-03-25T04:06:19.515Z,12.10
2019-03-25T04:07:24.329Z,12.10
2019-03-25T04:08:28.827Z,12.10
2019-03-25T04:09:33.382Z,12.10
2019-03-25T04:10:38.189Z,12.10
2019-03-25T04:11:42.703Z,12.10
2019-03-25T04:12:47.258Z,12.10
2019-03-25T04:13:51.729Z,12.00
2019-03-25T04:14:56.228Z,12.00
2019-03-25T04:16:01.614Z,12.00
2019-03-25T04:17:06.623Z,12.00
2019-03-25T04:18:11.091Z,12.00
2019-03-25T04:19:15.659Z,12.00
2019-03-25T04:20:20.137Z,12.00
2019-03-25T04:21:24.637Z,12.00
2019-03-25T04:22:29.125Z,12.00
2019-03-25T04:23:33.611Z,12.00
2019-03-25T04:24:38.089Z,12.00
2019-03-25T04:25:42.585Z,12.00
2019-03-25T04:26:47.059Z,12.00
2019-03-25T04:27:51.548Z,12.00
2019-03-25T04:28:56.023Z,12.00
2019-03-25T04:30:00.670Z,12.00
2019-03-25T04:31:05.170Z,12.00
2019-03-25T04:32:09.649Z,12.00
2019-03-25T04:33:14.188Z,12.00
2019-03-25T04:34:18.667Z,12.00
2019-03-25T04:35:23.135Z,12.00
2019-03-25T04:36:27.632Z,12.00
2019-03-25T04:37:32.298Z,12.00
2019-03-25T04:38:36.952Z,12.00
2019-03-25T04:39:41.420Z,12.00
2019-03-25T04:40:45.916Z,12.00
2019-03-25T04:41:50.584Z,11.90
2019-03-25T04:42:55.073Z,11.90
2019-03-25T04:43:59.586Z,11.90
2019-03-25T04:45:05.944Z,11.90
2019-03-25T04:46:10.485Z,11.90
2019-03-25T04:47:15.029Z,11.80
2019-03-25T04:48:19.538Z,11.80
2019-03-25T04:49:24.042Z,11.80
2019-03-25T04:50:28.517Z,11.70
2019-03-25T04:51:33.000Z,11.70
2019-03-25T04:52:37.475Z,11.70
2019-03-25T04:53:42.075Z,11.60
2019-03-25T04:54:46.556Z,11.60
2019-03-25T04:55:51.053Z,11.60
2019-03-25T04:56:55.603Z,11.60
2019-03-25T04:58:00.109Z,11.50
2019-03-25T04:59:05.548Z,11.50
2019-03-25T05:00:10.627Z,11.50
2019-03-25T05:01:15.120Z,11.50
2019-03-25T05:02:19.665Z,11.40
2019-03-25T05:03:24.219Z,11.40
2019-03-25T05:04:28.695Z,11.40
2019-03-25T05:05:35.697Z,11.40
2019-03-25T05:06:39.567Z,11.40
2019-03-25T05:07:44.049Z,11.40
2019-03-25T05:08:48.550Z,11.40
2019-03-25T05:09:53.028Z,11.40
2019-03-25T05:10:57.523Z,11.40
2019-03-25T05:12:01.999Z,11.40
2019-03-25T05:13:06.569Z,11.40
2019-03-25T05:14:11.039Z,11.40
2019-03-25T05:15:15.533Z,11.40
2019-03-25T05:16:20.020Z,11.40
2019-03-25T05:17:24.520Z,11.40
2019-03-25T05:18:29.136Z,11.40
2019-03-25T05:19:33.614Z,11.40
2019-03-25T05:20:38.113Z,11.40
2019-03-25T05:21:42.606Z,11.40
2019-03-25T05:22:47.084Z,11.40
2019-03-25T05:23:51.553Z,11.40
2019-03-25T05:24:56.955Z,11.40
2019-03-25T05:26:01.450Z,11.40
2019-03-25T05:27:05.935Z,11.50
2019-03-25T05:28:10.416Z,11.40
2019-03-25T05:29:14.916Z,11.50
2019-03-25T05:30:19.447Z,11.50
2019-03-25T05:31:23.950Z,11.50
2019-03-25T05:32:28.456Z,11.50
2019-03-25T05:33:32.923Z,11.50
2019-03-25T05:34:37.418Z,11.50
2019-03-25T05:35:42.241Z,11.50
2019-03-25T05:36:46.738Z,11.50
2019-03-25T05:37:51.323Z,11.50
2019-03-25T05:38:55.880Z,11.50
2019-03-25T05:40:00.412Z,11.50
2019-03-25T05:41:04.961Z,11.40
2019-03-25T05:42:09.473Z,11.50
2019-03-25T05:43:14.115Z,11.40
2019-03-25T05:44:18.746Z,11.40
2019-03-25T05:45:23.231Z,11.40
2019-03-25T05:46:27.711Z,11.40
2019-03-25T05:47:32.192Z,11.40
2019-03-25T05:48:36.688Z,11.40
2019-03-25T05:49:41.182Z,11.40
2019-03-25T05:50:45.664Z,11.40
2019-03-25T05:51:50.142Z,11.40
2019-03-25T05:52:54.638Z,11.40
2019-03-25T05:53:59.158Z,11.30
2019-03-25T05:55:04.968Z,11.40
2019-03-25T05:56:09.442Z,11.30
2019-03-25T05:57:13.926Z,11.30
2019-03-25T05:58:18.398Z,11.30
2019-03-25T05:59:22.987Z,11.30
2019-03-25T06:00:31.775Z,11.30
2019-03-25T06:01:36.256Z,11.30
2019-03-25T06:02:40.753Z,11.30
2019-03-25T06:03:45.249Z,11.30
2019-03-25T06:04:49.726Z,11.30
2019-03-25T06:05:54.198Z,11.30
2019-03-25T06:06:58.678Z,11.30
2019-03-25T06:08:03.169Z,11.30
2019-03-25T06:09:07.724Z,11.30
2019-03-25T06:10:13.269Z,11.30
2019-03-25T06:11:17.766Z,11.20
2019-03-25T06:12:22.249Z,11.30
2019-03-25T06:13:26.722Z,11.20
2019-03-25T06:14:31.196Z,11.20
2019-03-25T06:15:35.692Z,11.20
2019-03-25T06:16:40.247Z,11.20
2019-03-25T06:17:44.732Z,11.30
2019-03-25T06:18:49.199Z,11.20
2019-03-25T06:19:53.681Z,11.20
2019-03-25T06:20:58.189Z,11.20
2019-03-25T06:22:02.664Z,11.20
2019-03-25T06:23:07.152Z,11.20
2019-03-25T06:24:11.632Z,11.20
2019-03-25T06:25:16.127Z,11.20
2019-03-25T06:26:20.629Z,11.20
2019-03-25T06:27:25.107Z,11.20
2019-03-25T06:28:29.580Z,11.20
2019-03-25T06:29:34.081Z,11.20
2019-03-25T06:30:38.563Z,11.20
2019-03-25T06:31:43.053Z,11.20
2019-03-25T06:32:47.557Z,11.20
2019-03-25T06:33:52.045Z,11.20
2019-03-25T06:34:56.513Z,11.20
2019-03-25T06:36:01.124Z,11.30
2019-03-25T06:37:05.612Z,11.20
2019-03-25T06:38:10.129Z,11.20
2019-03-25T06:39:14.598Z,11.20
2019-03-25T06:40:19.151Z,11.20
2019-03-25T06:41:23.627Z,11.20
2019-03-25T06:42:28.115Z,11.20
2019-03-25T06:43:32.621Z,11.20
2019-03-25T06:44:37.107Z,11.20
2019-03-25T06:45:41.597Z,11.20
2019-03-25T06:46:46.084Z,11.20
2019-03-25T06:47:50.568Z,11.20
2019-03-25T06:48:55.079Z,11.20
2019-03-25T06:49:59.594Z,11.20
2019-03-25T06:51:04.191Z,11.20
2019-03-25T06:52:08.737Z,11.20
2019-03-25T06:53:13.226Z,11.20
2019-03-25T06:54:17.708Z,11.20
2019-03-25T06:55:22.182Z,11.20
2019-03-25T06:56:26.689Z,11.10
2019-03-25T06:57:31.163Z,11.10
2019-03-25T06:58:35.634Z,11.10
2019-03-25T06:59:40.161Z,11.10
2019-03-25T07:00:44.652Z,11.10
2019-03-25T07:01:49.132Z,11.10
2019-03-25T07:02:53.606Z,11.00
2019-03-25T07:03:58.079Z,11.00
2019-03-25T07:05:02.581Z,11.00
2019-03-25T07:06:07.059Z,11.10
2019-03-25T07:07:11.522Z,11.00
2019-03-25T07:08:16.005Z,11.10
2019-03-25T07:09:21.155Z,11.00
2019-03-25T07:10:30.947Z,11.10
2019-03-25T07:11:35.664Z,11.10
2019-03-25T07:12:40.270Z,11.10
2019-03-25T07:13:44.764Z,11.10
2019-03-25T07:14:49.320Z,11.10
2019-03-25T07:15:54.137Z,11.20
2019-03-25T07:16:58.623Z,11.20
2019-03-25T07:18:03.232Z,11.20
2019-03-25T07:19:07.707Z,11.20
2019-03-25T07:20:12.647Z,11.20
2019-03-25T07:21:17.161Z,11.30
2019-03-25T07:22:21.648Z,11.30
2019-03-25T07:23:26.150Z,11.30
2019-03-25T07:24:30.631Z,11.40
2019-03-25T07:25:35.106Z,11.40
2019-03-25T07:26:39.608Z,11.40
2019-03-25T07:27:44.168Z,11.50
2019-03-25T07:28:48.916Z,11.50
2019-03-25T07:29:53.396Z,11.50
2019-03-25T07:30:58.081Z,11.60
2019-03-25T07:32:02.605Z,11.60
2019-03-25T07:33:07.409Z,11.60
2019-03-25T07:34:12.083Z,11.60
2019-03-25T07:35:16.632Z,11.70
2019-03-25T07:36:21.135Z,11.70
2019-03-25T07:37:25.721Z,11.70
2019-03-25T07:38:30.276Z,11.70
2019-03-25T07:39:35.107Z,11.70
2019-03-25T07:40:39.771Z,11.70
2019-03-25T07:41:44.286Z,11.70
2019-03-25T07:42:49.104Z,11.70
2019-03-25T07:43:53.764Z,11.70
2019-03-25T07:44:58.245Z,11.70
2019-03-25T07:46:02.741Z,11.70
2019-03-25T07:47:07.232Z,11.70
2019-03-25T07:48:11.720Z,11.70
2019-03-25T07:49:16.185Z,11.70
2019-03-25T07:50:20.701Z,11.60
2019-03-25T07:51:25.190Z,11.60
2019-03-25T07:52:29.758Z,11.60
2019-03-25T07:53:34.283Z,11.60
2019-03-25T07:54:38.832Z,11.60
2019-03-25T07:55:43.296Z,11.60
2019-03-25T07:56:47.806Z,11.60
2019-03-25T07:57:52.288Z,11.60
2019-03-25T07:58:56.825Z,11.60
2019-03-25T08:00:12.916Z,11.60
2019-03-25T08:01:07.469Z,11.60
2019-03-25T08:02:11.986Z,11.60
2019-03-25T08:03:16.440Z,11.70
2019-03-25T08:04:20.932Z,11.70
2019-03-25T08:05:25.398Z,11.70
2019-03-25T08:06:29.892Z,11.70
2019-03-25T08:07:34.390Z,11.70
2019-03-25T08:08:38.929Z,11.70
2019-03-25T08:09:43.530Z,11.80
2019-03-25T08:10:48.063Z,11.80
2019-03-25T08:11:52.534Z,11.80
2019-03-25T08:12:57.303Z,11.80
2019-03-25T08:14:01.843Z,11.80
2019-03-25T08:15:07.725Z,11.90
2019-03-25T08:16:12.211Z,11.90
2019-03-25T08:17:16.688Z,11.90
2019-03-25T08:18:21.194Z,12.00
2019-03-25T08:19:25.664Z,12.00
2019-03-25T08:20:30.227Z,12.00
2019-03-25T08:21:34.716Z,12.10
2019-03-25T08:22:39.270Z,12.10
2019-03-25T08:23:43.952Z,12.10
2019-03-25T08:24:48.535Z,12.20
2019-03-25T08:25:53.023Z,12.20
2019-03-25T08:26:57.501Z,12.30
2019-03-25T08:28:02.119Z,12.30
2019-03-25T08:29:06.610Z,12.30
2019-03-25T08:30:11.514Z,12.30
2019-03-25T08:31:16.087Z,12.40
2019-03-25T08:32:20.612Z,12.40
2019-03-25T08:33:25.360Z,12.40
2019-03-25T08:34:29.931Z,12.40
2019-03-25T08:35:34.407Z,12.40
2019-03-25T08:36:38.953Z,12.40
2019-03-25T08:37:43.424Z,12.40
2019-03-25T08:38:48.492Z,12.40
2019-03-25T08:39:53.000Z,12.40
2019-03-25T08:40:57.475Z,12.40
2019-03-25T08:42:01.944Z,12.40
2019-03-25T08:43:06.424Z,12.50
2019-03-25T08:44:10.895Z,12.50
2019-03-25T08:45:15.728Z,12.60
2019-03-25T08:46:20.200Z,12.60
2019-03-25T08:47:24.668Z,12.60
2019-03-25T08:48:29.160Z,12.70
2019-03-25T08:49:33.934Z,12.70
2019-03-25T08:50:38.427Z,12.80
2019-03-25T08:51:42.919Z,12.80
2019-03-25T08:52:47.372Z,12.80
2019-03-25T08:53:51.853Z,12.80
2019-03-25T08:54:56.324Z,12.80
2019-03-25T08:56:00.803Z,12.80
2019-03-25T08:57:05.503Z,12.80
2019-03-25T08:58:12.185Z,12.90
2019-03-25T08:59:16.470Z,12.90
2019-03-25T09:00:21.522Z,12.90
2019-03-25T09:01:26.009Z,12.90
2019-03-25T09:02:30.660Z,12.90
2019-03-25T09:03:35.134Z,12.90
2019-03-25T09:04:39.643Z,13.00
2019-03-25T09:05:44.120Z,13.00
2019-03-25T09:06:48.918Z,13.00
2019-03-25T09:07:53.375Z,13.00
2019-03-25T09:08:57.853Z,13.00
2019-03-25T09:10:02.712Z,13.00
2019-03-25T09:11:07.312Z,12.90
2019-03-25T09:12:12.031Z,12.90
2019-03-25T09:13:16.503Z,12.80
2019-03-25T09:14:20.986Z,12.80
2019-03-25T09:15:25.619Z,12.80
2019-03-25T09:16:30.092Z,12.70
2019-03-25T09:17:34.584Z,12.60
2019-03-25T09:18:39.042Z,12.60
2019-03-25T09:19:43.542Z,12.60
2019-03-25T09:20:47.990Z,12.60
2019-03-25T09:21:52.550Z,12.50
2019-03-25T09:22:57.184Z,12.50
2019-03-25T09:24:01.880Z,12.40
2019-03-25T09:25:08.152Z,12.40
2019-03-25T09:26:12.641Z,12.40
2019-03-25T09:27:17.180Z,12.40
2019-03-25T09:28:24.483Z,12.30
2019-03-25T09:29:27.937Z,12.30
2019-03-25T09:30:53.745Z,12.30
2019-03-25T09:31:58.350Z,12.30
2019-03-25T09:33:02.981Z,12.30
2019-03-25T09:34:07.800Z,12.30
2019-03-25T09:35:12.369Z,12.20
2019-03-25T09:36:18.469Z,12.20
2019-03-25T09:37:22.936Z,12.20
2019-03-25T09:38:27.429Z,12.20
2019-03-25T09:39:32.038Z,12.20
2019-03-25T09:40:36.543Z,12.30
2019-03-25T09:41:41.010Z,12.20
2019-03-25T09:42:45.483Z,12.30
2019-03-25T09:43:50.650Z,12.30
2019-03-25T09:44:55.135Z,12.30
2019-03-25T09:45:59.794Z,12.30
2019-03-25T09:47:04.534Z,12.30
2019-03-25T09:48:09.676Z,12.40
2019-03-25T09:49:14.261Z,12.40
2019-03-25T09:50:18.863Z,12.40
2019-03-25T09:51:23.386Z,12.40
2019-03-25T09:52:38.131Z,12.40
2019-03-25T09:53:34.116Z,12.40
2019-03-25T09:54:38.602Z,12.40
2019-03-25T09:55:43.212Z,12.40
2019-03-25T09:56:47.756Z,12.40
2019-03-25T09:57:52.241Z,12.40
2019-03-25T09:58:56.708Z,12.40
2019-03-25T10:00:01.184Z,12.40
2019-03-25T10:01:05.871Z,12.40
2019-03-25T10:02:10.368Z,12.40
2019-03-25T10:03:14.843Z,12.40
2019-03-25T10:04:20.177Z,12.40
2019-03-25T10:05:24.834Z,12.40
2019-03-25T10:06:29.374Z,12.50
2019-03-25T10:07:33.869Z,12.50
2019-03-25T10:08:38.598Z,12.50
2019-03-25T10:09:43.193Z,12.60
2019-03-25T10:10:48.387Z,12.60
2019-03-25T10:11:52.893Z,12.60
2019-03-25T10:12:57.365Z,12.70
2019-03-25T10:14:02.005Z,12.80
2019-03-25T10:15:08.619Z,12.80
2019-03-25T10:16:13.148Z,12.90
2019-03-25T10:17:17.697Z,13.00
2019-03-25T10:18:22.245Z,13.20
2019-03-25T10:19:26.722Z,13.20
2019-03-25T10:20:31.187Z,13.30
2019-03-25T10:21:35.660Z,13.40
2019-03-25T10:22:40.261Z,13.50
2019-03-25T10:23:44.764Z,13.60
2019-03-25T10:24:49.322Z,13.80
2019-03-25T10:25:53.906Z,13.90
2019-03-25T10:26:58.461Z,14.10
2019-03-25T10:28:02.955Z,14.30
2019-03-25T10:29:07.564Z,14.50
2019-03-25T10:30:14.139Z,14.70
2019-03-25T10:31:19.354Z,14.90
2019-03-25T10:32:23.834Z,15.10
2019-03-25T10:33:28.304Z,15.30
2019-03-25T10:34:32.770Z,15.40
2019-03-25T10:35:37.278Z,15.60
2019-03-25T10:36:41.839Z,15.70
2019-03-25T10:38:50.577Z,15.90
2019-03-25T10:39:55.077Z,16.10
2019-03-25T10:40:59.568Z,16.20
2019-03-25T10:42:04.048Z,16.30
2019-03-25T10:43:08.589Z,16.40
2019-03-25T10:44:13.137Z,16.40
2019-03-25T10:45:18.872Z,16.50
2019-03-25T10:46:23.367Z,16.50
2019-03-25T10:47:27.856Z,16.50
2019-03-25T10:48:32.386Z,16.60
2019-03-25T10:49:36.897Z,16.60
2019-03-25T10:50:41.450Z,16.60
2019-03-25T10:51:45.959Z,16.70
2019-03-25T10:52:50.432Z,16.70
2019-03-25T10:53:54.912Z,16.80
2019-03-25T10:54:59.506Z,16.90
2019-03-25T10:56:04.065Z,16.90
2019-03-25T10:57:08.551Z,17.00
2019-03-25T10:58:13.119Z,17.10
2019-03-25T10:59:17.665Z,17.10
2019-03-25T11:00:22.330Z,17.20
2019-03-25T11:01:26.860Z,17.30
2019-03-25T11:02:31.384Z,17.30
2019-03-25T11:03:35.856Z,17.40
2019-03-25T11:04:40.326Z,17.50
2019-03-25T11:05:44.933Z,17.60
2019-03-25T11:06:49.475Z,17.60
2019-03-25T11:07:53.971Z,17.70
2019-03-25T11:08:58.443Z,17.80
2019-03-25T11:10:03.398Z,17.90
2019-03-25T11:11:08.064Z,18.00
2019-03-25T11:12:12.574Z,18.10
2019-03-25T11:13:17.112Z,18.20
2019-03-25T11:14:21.584Z,18.20
2019-03-25T11:15:26.147Z,18.20
2019-03-25T11:16:30.637Z,18.20
2019-03-25T11:17:35.152Z,18.20
2019-03-25T11:18:39.676Z,18.20
2019-03-25T11:19:44.183Z,18.10
2019-03-25T11:20:48.677Z,18.10
2019-03-25T11:21:53.157Z,18.00
2019-03-25T11:22:57.624Z,18.00
2019-03-25T11:24:02.699Z,17.90
2019-03-25T11:25:08.015Z,17.90
2019-03-25T11:26:12.527Z,17.90
2019-03-25T11:27:17.016Z,17.80
2019-03-25T11:28:21.579Z,17.80
2019-03-25T11:29:26.045Z,17.80
2019-03-25T11:30:50.857Z,17.90
2019-03-25T11:31:55.344Z,17.90
2019-03-25T11:32:59.841Z,18.00
2019-03-25T11:34:04.516Z,18.10
2019-03-25T11:35:10.335Z,18.20
2019-03-25T11:36:14.902Z,18.30
2019-03-25T11:37:19.454Z,18.30
2019-03-25T11:38:23.961Z,18.30
2019-03-25T11:39:28.457Z,18.40
2019-03-25T11:40:32.926Z,18.40
2019-03-25T11:41:37.469Z,18.40
2019-03-25T11:42:41.935Z,18.40
2019-03-25T11:43:46.436Z,18.40
2019-03-25T11:44:50.907Z,18.30
2019-03-25T11:45:55.524Z,18.30
2019-03-25T11:46:59.995Z,18.30
2019-03-25T11:48:04.708Z,18.20
2019-03-25T11:49:09.233Z,18.20
2019-03-25T11:50:13.897Z,18.20
2019-03-25T11:51:18.376Z,18.20
2019-03-25T11:52:22.838Z,18.20
2019-03-25T11:53:27.312Z,18.10
2019-03-25T11:54:31.794Z,18.10
2019-03-25T11:55:36.279Z,18.00
2019-03-25T11:56:40.768Z,17.90
2019-03-25T11:57:45.230Z,17.80
2019-03-25T11:58:49.788Z,17.60
2019-03-25T11:59:54.250Z,17.50
2019-03-25T12:00:58.745Z,17.40
2019-03-25T12:02:03.212Z,17.30
2019-03-25T12:03:07.833Z,17.20
2019-03-25T12:04:12.297Z,17.10
2019-03-25T12:05:16.918Z,17.00
2019-03-25T12:06:21.424Z,16.90
2019-03-25T12:07:25.938Z,16.80
2019-03-25T12:08:30.416Z,16.70
2019-03-25T12:09:34.938Z,16.70
2019-03-25T12:10:39.724Z,16.50
2019-03-25T12:11:44.201Z,16.50
2019-03-25T12:12:48.684Z,16.40
2019-03-25T12:13:53.574Z,16.30
2019-03-25T12:14:58.048Z,16.20
2019-03-25T12:16:02.809Z,16.00
2019-03-25T12:17:07.293Z,15.90
2019-03-25T12:18:11.778Z,15.80
2019-03-25T12:19:16.257Z,15.60
2019-03-25T12:20:20.803Z,15.50
2019-03-25T12:21:25.271Z,15.30
2019-03-25T12:22:29.760Z,15.20
2019-03-25T12:23:34.233Z,15.10
2019-03-25T12:24:38.707Z,15.00
2019-03-25T12:25:43.240Z,14.90
2019-03-25T12:26:47.722Z,14.80
2019-03-25T12:27:52.218Z,14.70
2019-03-25T12:28:56.684Z,14.60
2019-03-25T12:30:01.156Z,14.60
2019-03-25T12:31:05.643Z,14.60
2019-03-25T12:32:10.159Z,14.50
2019-03-25T12:33:14.615Z,14.50
2019-03-25T12:34:19.095Z,14.60
2019-03-25T12:35:23.610Z,14.60
2019-03-25T12:36:28.355Z,14.60
2019-03-25T12:37:32.856Z,14.60
2019-03-25T12:38:37.393Z,14.60
2019-03-25T12:39:41.860Z,14.60
2019-03-25T12:40:46.333Z,14.60
2019-03-25T12:41:50.814Z,14.60
2019-03-25T12:42:55.303Z,14.60
2019-03-25T12:43:59.933Z,14.60
2019-03-25T12:45:06.463Z,14.60
2019-03-25T12:46:11.083Z,14.50
2019-03-25T12:47:15.630Z,14.50
2019-03-25T12:48:20.199Z,14.40
2019-03-25T12:49:24.688Z,14.40
2019-03-25T12:50:29.213Z,14.30
2019-03-25T12:51:33.806Z,14.30
2019-03-25T12:52:38.725Z,14.20
2019-03-25T12:53:43.287Z,14.10
2019-03-25T12:54:47.860Z,14.10
2019-03-25T12:55:52.457Z,14.00
2019-03-25T12:56:56.907Z,13.90
2019-03-25T12:58:01.604Z,13.80
2019-03-25T12:59:06.075Z,13.80
2019-03-25T13:00:11.374Z,13.70
2019-03-25T13:01:15.856Z,13.60
2019-03-25T13:02:20.315Z,13.50
2019-03-25T13:03:24.778Z,13.50
2019-03-25T13:04:29.261Z,13.40
2019-03-25T13:05:34.077Z,13.30
2019-03-25T13:06:39.201Z,13.30
2019-03-25T13:07:43.676Z,13.20
2019-03-25T13:08:48.228Z,13.10
2019-03-25T13:09:52.859Z,13.10
2019-03-25T13:10:57.531Z,13.00
2019-03-25T13:12:02.036Z,13.00
2019-03-25T13:13:06.871Z,12.90
2019-03-25T13:14:11.368Z,12.90
2019-03-25T13:15:15.832Z,12.80
2019-03-25T13:16:20.314Z,12.70
2019-03-25T13:17:24.770Z,12.70
2019-03-25T13:18:29.253Z,12.60
2019-03-25T13:19:33.790Z,12.50
2019-03-25T13:20:38.292Z,12.50
2019-03-25T13:21:42.752Z,12.50
2019-03-25T13:22:47.238Z,12.50
2019-03-25T13:23:51.737Z,12.50
2019-03-25T13:24:56.203Z,12.50
2019-03-25T13:26:00.691Z,12.60
2019-03-25T13:27:05.160Z,12.70
2019-03-25T13:28:09.631Z,12.80
2019-03-25T13:29:14.125Z,12.90
2019-03-25T13:30:18.850Z,13.00
2019-03-25T13:31:23.325Z,13.10
2019-03-25T13:32:27.810Z,13.20
2019-03-25T13:33:32.302Z,13.40
2019-03-25T13:34:36.841Z,13.60
2019-03-25T13:35:41.313Z,13.90
2019-03-25T13:36:45.939Z,14.10
2019-03-25T13:37:50.416Z,14.40
2019-03-25T13:38:54.894Z,14.60
2019-03-25T13:39:59.388Z,14.90
2019-03-25T13:41:04.106Z,15.20
2019-03-25T13:42:08.707Z,15.40
2019-03-25T13:43:13.346Z,15.70
2019-03-25T13:44:17.839Z,15.90
2019-03-25T13:45:22.387Z,16.10
2019-03-25T13:46:26.878Z,16.30
2019-03-25T13:47:31.342Z,16.40
2019-03-25T13:48:35.816Z,16.50
2019-03-25T13:49:40.341Z,16.50
2019-03-25T13:50:45.729Z,16.40
2019-03-25T13:51:50.415Z,16.40
2019-03-25T13:52:54.916Z,16.30
2019-03-25T13:53:59.407Z,16.20
2019-03-25T13:55:04.632Z,16.10
2019-03-25T13:56:09.105Z,16.10
2019-03-25T13:57:13.650Z,16.10
2019-03-25T13:58:18.119Z,16.10
2019-03-25T13:59:22.589Z,16.20
2019-03-25T14:00:37.674Z,16.30
2019-03-25T14:01:42.143Z,16.40
2019-03-25T14:02:46.633Z,16.50
2019-03-25T14:03:51.175Z,16.50
2019-03-25T14:04:55.662Z,16.60
2019-03-25T14:06:00.437Z,16.60
2019-03-25T14:07:05.363Z,16.60
2019-03-25T14:08:10.051Z,16.60
2019-03-25T14:09:14.727Z,16.50
2019-03-25T14:10:19.338Z,16.40
2019-03-25T14:11:23.890Z,16.30
2019-03-25T14:12:28.738Z,16.20
2019-03-25T14:13:33.376Z,16.10
2019-03-25T14:14:37.848Z,15.90
2019-03-25T14:15:42.327Z,15.80
2019-03-25T14:16:46.810Z,15.70
2019-03-25T14:17:51.333Z,15.50
2019-03-25T14:18:55.820Z,15.40
2019-03-25T14:20:00.394Z,15.30
2019-03-25T14:21:04.908Z,15.20